createdAt,value
2019-05-03T00:00:12.611Z,8.70
2019-05-03T00:03:07.021Z,8.69
2019-05-03T00:05:49.944Z,8.74
2019-05-03T00:08:19.495Z,8.76
2019-05-03T00:10:49.012Z,8.67
2019-05-03T00:13:18.633Z,8.75
2019-05-03T00:16:06.765Z,8.78
2019-05-03T00:18:39.725Z,8.77
2019-05-03T00:21:09.121Z,8.65
2019-05-03T00:23:38.550Z,8.62
2019-05-03T00:26:08.031Z,8.67
2019-05-03T00:28:38.911Z,8.49
2019-05-03T00:31:09.443Z,8.44
2019-05-03T00:33:39.778Z,8.35
2019-05-03T00:36:32.838Z,8.30
2019-05-03T00:39:21.600Z,8.23
2019-05-03T00:41:52.106Z,8.18
2019-05-03T00:44:22.659Z,8.12
2019-05-03T00:46:52.347Z,8.11
2019-05-03T00:49:22.735Z,8.18
2019-05-03T00:51:52.317Z,8.21
2019-05-03T00:54:22.351Z,8.16
2019-05-03T00:56:52.213Z,8.15
2019-05-03T00:59:22.949Z,8.10
2019-05-03T01:01:55.475Z,8.12
2019-05-03T01:04:25.239Z,8.12
2019-05-03T01:06:56.210Z,8.10
2019-05-03T01:09:28.323Z,8.09
2019-05-03T01:11:57.975Z,8.08
2019-05-03T01:14:27.486Z,8.07
2019-05-03T01:16:57.322Z,8.05
2019-05-03T01:19:27.752Z,8.00
2019-05-03T01:21:58.272Z,7.96
2019-05-03T01:24:29.104Z,7.98
2019-05-03T01:27:01.820Z,7.97
2019-05-03T01:29:32.253Z,7.98
2019-05-03T01:32:03.718Z,7.98
2019-05-03T01:34:35.107Z,7.97
2019-05-03T01:37:04.726Z,7.86
2019-05-03T01:39:34.569Z,7.88
2019-05-03T01:42:05.389Z,7.89
2019-05-03T01:44:36.631Z,7.85
2019-05-03T01:47:12.303Z,7.86
2019-05-03T01:50:12.170Z,7.89
2019-05-03T01:52:46.071Z,7.87
2019-05-03T01:55:16.728Z,7.78
2019-05-03T01:57:46.270Z,7.67
2019-05-03T02:00:22.477Z,7.64
2019-05-03T02:03:01.670Z,7.70
2019-05-03T02:05:45.755Z,7.69
2019-05-03T02:08:18.751Z,7.62
2019-05-03T02:10:48.383Z,7.62
2019-05-03T02:13:19.413Z,7.55
2019-05-03T02:15:52.854Z,7.54
2019-05-03T02:18:23.333Z,7.52
2019-05-03T02:20:52.885Z,7.57
2019-05-03T02:23:23.487Z,7.58
2019-05-03T02:25:58.309Z,7.58
2019-05-03T02:28:26.073Z,7.55
2019-05-03T02:30:55.581Z,7.58
2019-05-03T02:33:26.148Z,7.52
2019-05-03T02:35:55.781Z,7.53
2019-05-03T02:38:26.181Z,7.54
2019-05-03T02:40:55.768Z,7.54
2019-05-03T02:43:31.739Z,7.50
2019-05-03T02:46:11.614Z,7.51
2019-05-03T02:48:50.456Z,7.50
2019-05-03T02:51:19.823Z,7.50
2019-05-03T02:53:49.979Z,7.52
2019-05-03T02:56:22.552Z,7.44
2019-05-03T02:58:51.695Z,7.42
2019-05-03T03:01:21.207Z,7.45
2019-05-03T03:03:55.833Z,7.41
2019-05-03T03:06:26.698Z,7.47
2019-05-03T03:08:58.725Z,7.44
2019-05-03T03:11:30.285Z,7.45
2019-05-03T03:14:01.948Z,7.41
2019-05-03T03:16:36.183Z,7.42
2019-05-03T03:19:07.825Z,7.43
2019-05-03T03:21:42.373Z,7.45
2019-05-03T03:24:17.443Z,7.39
2019-05-03T03:26:49.985Z,7.30
2019-05-03T03:29:25.017Z,7.25
2019-05-03T03:32:19.653Z,7.18
2019-05-03T03:35:03.126Z,7.27
2019-05-03T03:37:31.396Z,7.31
2019-05-03T03:40:01.144Z,7.32
2019-05-03T03:42:32.683Z,7.33
2019-05-03T03:45:06.125Z,7.28
2019-05-03T03:47:40.864Z,7.28
2019-05-03T03:50:11.340Z,7.35
2019-05-03T03:52:45.059Z,7.36
2019-05-03T03:55:15.846Z,7.30
2019-05-03T03:57:46.974Z,7.32
2019-05-03T04:00:19.405Z,7.33
2019-05-03T04:02:50.007Z,7.28
2019-05-03T04:05:20.862Z,7.34
2019-05-03T04:07:51.793Z,7.31
2019-05-03T04:10:26.086Z,7.32
2019-05-03T04:12:56.120Z,7.30
2019-05-03T04:15:57.989Z,7.33
2019-05-03T04:18:35.946Z,7.38
2019-05-03T04:21:06.005Z,7.45
2019-05-03T04:23:38.338Z,7.41
2019-05-03T04:26:09.427Z,7.40
2019-05-03T04:28:40.356Z,7.44
2019-05-03T04:31:10.093Z,7.49
2019-05-03T04:33:40.955Z,7.46
2019-05-03T04:36:11.377Z,7.52
2019-05-03T04:38:40.963Z,7.49
2019-05-03T04:41:10.368Z,7.59
2019-05-03T04:43:39.765Z,7.69
2019-05-03T04:46:17.039Z,7.76
2019-05-03T04:48:47.569Z,7.77
2019-05-03T04:51:18.804Z,7.79
2019-05-03T04:53:57.856Z,7.77
2019-05-03T04:56:30.728Z,7.74
2019-05-03T04:59:05.214Z,7.78
2019-05-03T05:01:35.335Z,7.83
2019-05-03T05:04:06.532Z,7.86
2019-05-03T05:06:36.374Z,7.83
2019-05-03T05:09:07.564Z,7.87
2019-05-03T05:11:38.040Z,7.89
2019-05-03T05:14:10.128Z,7.99
2019-05-03T05:16:39.954Z,7.97
2019-05-03T05:19:15.333Z,7.99
2019-05-03T05:21:48.913Z,8.01
2019-05-03T05:24:18.366Z,8.06
2019-05-03T05:27:08.959Z,8.12
2019-05-03T05:29:40.933Z,8.11
2019-05-03T05:32:10.533Z,8.15
2019-05-03T05:34:41.594Z,8.13
2019-05-03T05:37:14.431Z,8.19
2019-05-03T05:39:46.442Z,8.31
2019-05-03T05:42:16.970Z,8.27
2019-05-03T05:44:47.500Z,8.29
2019-05-03T05:47:36.555Z,8.37
2019-05-03T05:50:22.013Z,8.31
2019-05-03T05:52:55.102Z,8.37
2019-05-03T05:55:42.418Z,8.52
2019-05-03T05:58:37.426Z,8.56
2019-05-03T06:01:27.793Z,8.68
2019-05-03T06:03:57.530Z,8.70
2019-05-03T06:06:45.141Z,8.72
2019-05-03T06:09:38.833Z,8.75
2019-05-03T06:12:14.822Z,8.72
2019-05-03T06:14:55.128Z,8.89
2019-05-03T06:17:32.312Z,9.01
2019-05-03T06:20:24.601Z,8.96
2019-05-03T06:23:05.223Z,9.07
2019-05-03T06:25:40.444Z,9.30
2019-05-03T06:28:20.823Z,9.82
2019-05-03T06:31:01.132Z,10.16
2019-05-03T06:33:30.633Z,10.42
2019-05-03T06:36:01.823Z,10.38
2019-05-03T06:38:34.390Z,10.30
2019-05-03T06:41:05.730Z,10.64
2019-05-03T06:43:39.634Z,10.97
2019-05-03T06:46:07.486Z,11.15
2019-05-03T06:48:37.016Z,11.24
2019-05-03T06:51:10.982Z,12.08
2019-05-03T06:53:41.830Z,13.69
2019-05-03T06:56:14.736Z,15.71
2019-05-03T06:58:45.483Z,17.62
2019-05-03T07:01:26.094Z,17.40
2019-05-03T07:04:10.986Z,16.13
2019-05-03T07:06:59.746Z,14.59
2019-05-03T07:09:38.887Z,14.41
2019-05-03T07:12:08.476Z,16.12
2019-05-03T07:14:38.118Z,16.59
2019-05-03T07:17:08.948Z,17.54
2019-05-03T07:19:39.587Z,19.12
2019-05-03T07:22:12.056Z,20.30
2019-05-03T07:24:41.810Z,19.37
2019-05-03T07:27:11.408Z,17.13
2019-05-03T07:29:44.052Z,16.60
2019-05-03T07:32:17.573Z,16.69
2019-05-03T07:34:47.062Z,16.05
2019-05-03T07:37:16.507Z,15.17
2019-05-03T07:39:46.250Z,14.90
2019-05-03T07:42:15.780Z,16.43
2019-05-03T07:44:46.915Z,17.41
2019-05-03T07:47:16.417Z,16.39
2019-05-03T07:49:47.037Z,15.27
2019-05-03T07:52:18.230Z,14.30
2019-05-03T07:54:48.266Z,13.79
2019-05-03T07:57:46.534Z,13.34
2019-05-03T08:00:22.054Z,13.62
2019-05-03T08:02:51.570Z,14.04
2019-05-03T08:05:24.565Z,13.87
2019-05-03T08:07:56.675Z,13.87
2019-05-03T08:10:27.776Z,15.44
2019-05-03T08:13:04.570Z,15.29
2019-05-03T08:15:34.771Z,14.56
2019-05-03T08:18:04.952Z,14.22
2019-05-03T08:20:35.043Z,13.67
2019-05-03T08:23:06.095Z,13.51
2019-05-03T08:25:35.588Z,14.47
2019-05-03T08:28:10.075Z,16.84
2019-05-03T08:30:54.329Z,17.55
2019-05-03T08:34:04.681Z,17.93
2019-05-03T08:36:58.525Z,18.41
2019-05-03T08:39:29.898Z,18.75
2019-05-03T08:42:04.815Z,17.53
2019-05-03T08:44:35.362Z,16.83
2019-05-03T08:47:05.386Z,15.92
2019-05-03T08:49:37.744Z,15.21
2019-05-03T08:52:08.791Z,14.63
2019-05-03T08:54:38.402Z,14.34
2019-05-03T08:57:08.021Z,14.27
2019-05-03T08:59:38.558Z,14.00
2019-05-03T09:02:14.287Z,14.16
2019-05-03T09:04:43.266Z,15.03
2019-05-03T09:07:14.794Z,15.88
2019-05-03T09:10:12.333Z,16.29
2019-05-03T09:12:56.840Z,17.13
2019-05-03T09:15:26.656Z,17.22
2019-05-03T09:17:56.276Z,15.81
2019-05-03T09:20:26.321Z,14.54
2019-05-03T09:22:55.919Z,13.63
2019-05-03T09:25:27.891Z,12.99
2019-05-03T09:27:59.001Z,12.60
2019-05-03T09:30:29.706Z,12.40
2019-05-03T09:32:59.134Z,12.53
2019-05-03T09:35:33.184Z,12.33
2019-05-03T09:38:01.439Z,12.20
2019-05-03T09:40:38.055Z,12.40
2019-05-03T09:43:09.273Z,12.25
2019-05-03T09:45:39.878Z,12.53
2019-05-03T09:48:11.008Z,12.61
2019-05-03T09:50:45.207Z,12.97
2019-05-03T09:53:16.048Z,13.75
2019-05-03T09:55:47.846Z,14.03
2019-05-03T09:58:18.687Z,14.26
2019-05-03T10:00:51.796Z,14.40
2019-05-03T10:03:21.926Z,14.33
2019-05-03T10:05:55.201Z,14.44
2019-05-03T10:08:27.219Z,14.72
2019-05-03T10:11:12.240Z,14.44
2019-05-03T10:13:42.142Z,14.66
2019-05-03T10:16:11.745Z,13.71
2019-05-03T10:18:41.125Z,13.16
2019-05-03T10:21:10.707Z,12.71
2019-05-03T10:23:41.529Z,12.74
2019-05-03T10:26:11.950Z,12.85
2019-05-03T10:28:41.580Z,13.44
2019-05-03T10:31:10.975Z,13.99
2019-05-03T10:33:45.223Z,14.08
2019-05-03T10:36:15.575Z,13.83
2019-05-03T10:38:45.941Z,13.56
2019-05-03T10:41:15.577Z,13.24
2019-05-03T10:43:46.597Z,13.48
2019-05-03T10:46:16.153Z,13.97
2019-05-03T10:48:45.602Z,14.63
2019-05-03T10:51:15.820Z,14.62
2019-05-03T10:53:48.192Z,14.98
2019-05-03T10:56:28.880Z,14.94
2019-05-03T10:59:03.301Z,15.04
2019-05-03T11:01:51.955Z,14.73
2019-05-03T11:04:23.002Z,14.47
2019-05-03T11:06:54.930Z,14.80
2019-05-03T11:09:26.086Z,14.82
2019-05-03T11:11:58.578Z,14.50
2019-05-03T11:14:30.139Z,14.21
2019-05-03T11:17:00.630Z,14.75
2019-05-03T11:19:31.929Z,15.15
2019-05-03T11:22:02.609Z,15.22
2019-05-03T11:24:32.166Z,14.78
2019-05-03T11:27:06.191Z,14.17
2019-05-03T11:29:37.744Z,14.01
2019-05-03T11:32:25.563Z,14.12
2019-05-03T11:35:05.405Z,14.14
2019-05-03T11:37:46.522Z,13.90
2019-05-03T11:40:18.257Z,13.52
2019-05-03T11:42:48.351Z,13.42
2019-05-03T11:45:20.325Z,13.52
2019-05-03T11:47:50.006Z,13.64
2019-05-03T11:50:19.542Z,13.84
2019-05-03T11:52:49.072Z,13.50
2019-05-03T11:55:20.084Z,13.01
2019-05-03T11:57:51.363Z,12.75
2019-05-03T12:00:30.197Z,12.61
2019-05-03T12:03:28.693Z,12.07
2019-05-03T12:06:00.913Z,12.18
2019-05-03T12:08:30.624Z,12.18
2019-05-03T12:11:01.764Z,12.40
2019-05-03T12:13:32.075Z,12.67
2019-05-03T12:16:05.472Z,12.87
2019-05-03T12:18:48.902Z,13.01
2019-05-03T12:21:09.132Z,12.91
2019-05-03T12:23:39.726Z,13.05
2019-05-03T12:26:12.983Z,12.93
2019-05-03T12:28:44.649Z,13.19
2019-05-03T12:31:29.648Z,13.30
2019-05-03T12:33:46.158Z,13.21
2019-05-03T12:36:16.066Z,12.80
2019-05-03T12:38:45.581Z,12.50
2019-05-03T12:41:16.857Z,12.27
2019-05-03T12:43:47.390Z,12.66
2019-05-03T12:46:18.169Z,12.81
2019-05-03T12:48:47.848Z,12.86
2019-05-03T12:51:17.664Z,12.72
2019-05-03T12:53:48.277Z,12.53
2019-05-03T12:56:24.229Z,12.54
2019-05-03T12:59:10.963Z,12.67
2019-05-03T13:02:09.523Z,12.78
2019-05-03T13:04:39.718Z,13.03
2019-05-03T13:07:23.830Z,13.03
2019-05-03T13:09:56.879Z,12.97
2019-05-03T13:12:29.727Z,13.22
2019-05-03T13:14:59.379Z,13.26
2019-05-03T13:17:38.454Z,13.12
2019-05-03T13:20:14.019Z,13.17
2019-05-03T13:22:45.855Z,13.22
2019-05-03T13:25:16.337Z,13.34
2019-05-03T13:27:47.281Z,13.15
2019-05-03T13:30:18.009Z,13.30
2019-05-03T13:32:47.432Z,13.56
2019-05-03T13:35:17.293Z,13.57
2019-05-03T13:37:47.288Z,13.52
2019-05-03T13:40:17.871Z,13.32
2019-05-03T13:42:56.118Z,13.16
2019-05-03T13:45:18.533Z,12.85
2019-05-03T13:47:50.381Z,12.77
2019-05-03T13:50:20.810Z,12.80
2019-05-03T13:52:51.652Z,12.70
2019-05-03T13:55:24.649Z,12.57
2019-05-03T13:57:55.368Z,12.43
2019-05-03T14:00:25.012Z,12.38
2019-05-03T14:02:56.332Z,12.28
2019-05-03T14:05:25.964Z,12.24
2019-05-03T14:07:56.371Z,11.99
2019-05-03T14:10:27.308Z,12.06
2019-05-03T14:12:58.616Z,12.15
2019-05-03T14:15:29.650Z,12.36
2019-05-03T14:18:00.614Z,12.52
2019-05-03T14:20:47.681Z,12.58
2019-05-03T14:23:19.583Z,12.67
2019-05-03T14:25:48.995Z,12.63
2019-05-03T14:28:18.772Z,12.65
2019-05-03T14:30:48.274Z,12.82
2019-05-03T14:33:17.849Z,12.59
2019-05-03T14:35:49.209Z,12.56
2019-05-03T14:38:21.528Z,12.66
2019-05-03T14:40:51.069Z,12.71
2019-05-03T14:43:20.929Z,12.96
2019-05-03T14:45:50.480Z,12.71
2019-05-03T14:48:20.033Z,12.81
2019-05-03T14:50:51.118Z,13.05
2019-05-03T14:53:22.460Z,13.10
2019-05-03T14:55:58.334Z,13.28
2019-05-03T14:58:58.888Z,13.29
2019-05-03T15:01:38.675Z,13.44
2019-05-03T15:04:08.220Z,13.39
2019-05-03T15:06:37.889Z,13.20
2019-05-03T15:09:08.604Z,12.97
2019-05-03T15:11:39.599Z,12.98
2019-05-03T15:14:10.963Z,12.97
2019-05-03T15:16:40.526Z,13.02
2019-05-03T15:19:10.002Z,13.11
2019-05-03T15:21:39.554Z,13.09
2019-05-03T15:24:10.291Z,13.01
2019-05-03T15:26:39.779Z,12.98
2019-05-03T15:29:09.621Z,13.09
2019-05-03T15:31:40.381Z,13.20
2019-05-03T15:34:10.001Z,13.34
2019-05-03T15:36:41.003Z,13.13
2019-05-03T15:39:15.269Z,13.01
2019-05-03T15:41:45.044Z,13.20
2019-05-03T15:44:25.278Z,13.00
2019-05-03T15:47:02.613Z,13.12
2019-05-03T15:49:32.255Z,13.03
2019-05-03T15:52:01.904Z,13.02
2019-05-03T15:54:33.155Z,12.88
2019-05-03T15:57:05.029Z,12.72
2019-05-03T15:59:35.926Z,12.46
2019-05-03T16:02:06.904Z,12.30
2019-05-03T16:04:36.836Z,12.23
2019-05-03T16:07:06.528Z,12.21
2019-05-03T16:09:37.980Z,12.16
2019-05-03T16:12:07.809Z,12.14
2019-05-03T16:14:38.647Z,12.13
2019-05-03T16:17:09.057Z,12.14
2019-05-03T16:19:39.739Z,12.16
2019-05-03T16:22:09.214Z,12.25
2019-05-03T16:24:44.806Z,12.28
2019-05-03T16:27:47.434Z,12.36
2019-05-03T16:30:36.425Z,12.36
2019-05-03T16:33:22.417Z,12.20
2019-05-03T16:35:44.397Z,12.38
2019-05-03T16:38:15.560Z,12.29
2019-05-03T16:40:46.701Z,12.30
2019-05-03T16:43:17.407Z,12.12
2019-05-03T16:45:46.831Z,12.11
2019-05-03T16:48:18.400Z,12.13
2019-05-03T16:50:47.756Z,12.25
2019-05-03T16:53:17.305Z,12.18
2019-05-03T16:55:47.116Z,11.97
2019-05-03T16:58:18.113Z,12.06
2019-05-03T17:00:48.781Z,11.98
2019-05-03T17:03:37.915Z,11.90
2019-05-03T17:06:16.650Z,11.84
2019-05-03T17:09:15.664Z,11.84
2019-05-03T17:11:55.993Z,11.69
2019-05-03T17:14:24.953Z,11.79
2019-05-03T17:16:55.677Z,11.67
2019-05-03T17:19:26.191Z,11.83
2019-05-03T17:21:56.290Z,11.59
2019-05-03T17:24:29.055Z,11.33
2019-05-03T17:26:58.448Z,11.25
2019-05-03T17:29:30.187Z,11.25
2019-05-03T17:32:02.032Z,11.17
2019-05-03T17:34:31.639Z,10.93
2019-05-03T17:37:02.148Z,10.85
2019-05-03T17:39:51.025Z,10.67
2019-05-03T17:42:31.011Z,10.38
2019-05-03T17:45:00.642Z,10.27
2019-05-03T17:47:30.148Z,10.42
2019-05-03T17:49:59.997Z,10.49
2019-05-03T17:52:48.326Z,10.37
2019-05-03T17:55:36.793Z,10.36
2019-05-03T17:58:37.489Z,10.41
2019-05-03T18:01:23.524Z,10.35
2019-05-03T18:04:05.671Z,10.21
2019-05-03T18:06:32.084Z,10.22
2019-05-03T18:09:37.119Z,9.98
2019-05-03T18:12:08.269Z,10.03
2019-05-03T18:14:38.730Z,9.87
2019-05-03T18:17:08.311Z,9.79
2019-05-03T18:19:40.898Z,9.75
2019-05-03T18:22:11.325Z,9.63
2019-05-03T18:24:45.519Z,9.51
2019-05-03T18:27:18.115Z,9.63
2019-05-03T18:29:48.658Z,9.61
2019-05-03T18:32:21.750Z,9.62
2019-05-03T18:34:51.526Z,9.46
2019-05-03T18:37:24.514Z,9.39
2019-05-03T18:39:54.777Z,9.38
2019-05-03T18:42:35.953Z,9.44
2019-05-03T18:45:19.192Z,9.23
2019-05-03T18:47:48.623Z,9.32
2019-05-03T18:50:18.422Z,9.36
2019-05-03T18:52:50.064Z,9.46
2019-05-03T18:55:22.090Z,9.42
2019-05-03T18:57:51.862Z,8.93
2019-05-03T19:00:24.641Z,8.71
2019-05-03T19:02:55.370Z,8.71
2019-05-03T19:05:26.801Z,8.75
2019-05-03T19:08:05.342Z,8.71
2019-05-03T19:10:44.635Z,8.58
2019-05-03T19:13:27.232Z,8.61
2019-05-03T19:15:56.846Z,8.64
2019-05-03T19:18:28.643Z,8.61
2019-05-03T19:20:59.976Z,8.44
2019-05-03T19:23:31.232Z,8.41
2019-05-03T19:26:03.189Z,8.35
2019-05-03T19:28:35.408Z,8.21
2019-05-03T19:31:06.874Z,8.05
2019-05-03T19:33:37.257Z,8.06
2019-05-03T19:36:07.069Z,8.13
2019-05-03T19:38:36.545Z,8.28
2019-05-03T19:41:06.100Z,8.32
2019-05-03T19:43:35.742Z,8.41
2019-05-03T19:46:07.449Z,8.45
2019-05-03T19:48:37.267Z,8.53
2019-05-03T19:51:06.923Z,8.46
2019-05-03T19:53:49.803Z,8.44
2019-05-03T19:56:21.225Z,8.51
2019-05-03T19:58:52.435Z,8.57
2019-05-03T20:01:40.975Z,8.47
2019-05-03T20:04:41.859Z,8.51
2019-05-03T20:07:25.353Z,8.42
2019-05-03T20:09:55.738Z,8.45
2019-05-03T20:12:25.189Z,8.54
2019-05-03T20:14:54.847Z,8.47
2019-05-03T20:17:24.461Z,8.53
2019-05-03T20:19:57.472Z,8.53
2019-05-03T20:22:30.312Z,8.67
2019-05-03T20:25:02.000Z,8.65
2019-05-03T20:27:31.481Z,8.62
2019-05-03T20:30:01.486Z,8.55
2019-05-03T20:32:31.972Z,8.65
2019-05-03T20:35:12.923Z,8.67
2019-05-03T20:37:34.430Z,8.74
2019-05-03T20:40:04.944Z,8.75
2019-05-03T20:43:04.876Z,8.72
2019-05-03T20:45:54.698Z,8.60
2019-05-03T20:48:25.138Z,8.42
2019-05-03T20:50:55.164Z,8.45
2019-05-03T20:53:25.169Z,8.38
2019-05-03T20:55:54.708Z,8.22
2019-05-03T20:58:25.141Z,8.19
2019-05-03T21:00:54.968Z,8.03
2019-05-03T21:03:26.300Z,7.93
2019-05-03T21:05:58.897Z,7.83
2019-05-03T21:08:28.349Z,7.80
2019-05-03T21:10:59.121Z,7.63
2019-05-03T21:13:41.320Z,7.53
2019-05-03T21:16:23.368Z,7.55
2019-05-03T21:19:25.687Z,7.53
2019-05-03T21:22:08.171Z,7.57
2019-05-03T21:24:47.025Z,7.49
2019-05-03T21:27:18.220Z,7.42
2019-05-03T21:29:55.161Z,7.41
2019-05-03T21:32:25.441Z,7.30
2019-05-03T21:34:56.723Z,7.28
2019-05-03T21:37:26.338Z,7.36
2019-05-03T21:39:55.946Z,7.38
2019-05-03T21:42:25.441Z,7.40
2019-05-03T21:44:56.268Z,7.37
2019-05-03T21:47:41.134Z,7.32
2019-05-03T21:50:14.789Z,7.33
2019-05-03T21:52:45.809Z,7.24
2019-05-03T21:55:17.132Z,7.17
2019-05-03T21:57:46.630Z,7.07
2019-05-03T22:00:17.317Z,7.03
2019-05-03T22:02:46.988Z,6.94
2019-05-03T22:05:16.702Z,6.85
2019-05-03T22:07:47.347Z,6.91
2019-05-03T22:10:18.283Z,6.92
2019-05-03T22:12:50.757Z,6.89
2019-05-03T22:15:34.652Z,6.91
2019-05-03T22:18:21.037Z,6.89
2019-05-03T22:21:13.361Z,6.78
2019-05-03T22:24:06.873Z,6.78
2019-05-03T22:26:52.164Z,6.74
2019-05-03T22:29:25.249Z,6.65
2019-05-03T22:31:54.867Z,6.61
2019-05-03T22:34:25.722Z,6.62
2019-05-03T22:36:56.528Z,6.68
2019-05-03T22:39:27.077Z,6.75
2019-05-03T22:41:56.856Z,6.74
2019-05-03T22:44:26.258Z,6.81
2019-05-03T22:46:55.631Z,6.82
2019-05-03T22:49:26.410Z,6.84
2019-05-03T22:51:55.799Z,6.86
2019-05-03T22:54:25.323Z,6.85
2019-05-03T22:56:56.783Z,6.86
2019-05-03T22:59:27.343Z,6.79
2019-05-03T23:01:58.257Z,6.68
2019-05-03T23:04:29.708Z,6.72
2019-05-03T23:07:00.151Z,6.70
2019-05-03T23:09:30.979Z,6.66
2019-05-03T23:12:00.692Z,6.63
2019-05-03T23:14:30.199Z,6.59
2019-05-03T23:17:02.420Z,6.58
2019-05-03T23:19:36.373Z,6.63
2019-05-03T23:22:24.692Z,6.53
2019-05-03T23:24:54.923Z,6.50
2019-05-03T23:27:25.105Z,6.46
2019-05-03T23:29:55.258Z,6.48
2019-05-03T23:32:28.065Z,6.50
2019-05-03T23:34:57.505Z,6.53
2019-05-03T23:37:28.059Z,6.61
2019-05-03T23:39:58.956Z,6.60
2019-05-03T23:42:30.100Z,6.68
2019-05-03T23:45:02.448Z,6.71
2019-05-03T23:47:42.013Z,6.84
2019-05-03T23:50:16.228Z,6.83
2019-05-03T23:52:48.706Z,6.78
2019-05-03T23:55:25.288Z,6.78
2019-05-03T23:57:55.871Z,6.75
